createdAt,value
2023-04-18T00:01:18.686Z,8.88
2023-04-18T00:02:20.545Z,9.90
2023-04-18T00:03:22.421Z,9.32
2023-04-18T00:04:24.166Z,8.52
2023-04-18T00:06:29.998Z,9.90
2023-04-18T00:07:31.625Z,10.65
2023-04-18T00:08:36.589Z,9.93
2023-04-18T00:09:38.318Z,10.68
2023-04-18T00:10:40.114Z,10.13
2023-04-18T00:12:43.266Z,12.23
2023-04-18T00:13:47.297Z,12.32
2023-04-18T00:14:50.345Z,9.88
2023-04-18T00:15:54.225Z,7.55
2023-04-18T00:16:55.981Z,9.40
2023-04-18T00:18:59.420Z,10.60
2023-04-18T00:20:07.124Z,30.83
2023-04-18T00:21:08.863Z,12.65
2023-04-18T00:23:16.411Z,10.40
2023-04-18T00:24:17.993Z,9.52
2023-04-18T00:25:19.703Z,8.95
2023-04-18T00:26:21.254Z,7.90
2023-04-18T00:27:23.685Z,9.60
2023-04-18T00:28:28.546Z,7.82
2023-04-18T00:29:31.738Z,10.30
2023-04-18T00:30:33.611Z,7.75
2023-04-18T00:31:37.430Z,7.82
2023-04-18T00:32:39.165Z,8.27
2023-04-18T00:33:43.326Z,8.05
2023-04-18T00:35:46.998Z,8.55
2023-04-18T00:36:49.627Z,8.38
2023-04-18T00:38:53.705Z,8.50
2023-04-18T00:39:57.549Z,9.23
2023-04-18T00:42:03.959Z,7.20
2023-04-18T00:43:07.816Z,8.18
2023-04-18T00:44:09.510Z,8.75
2023-04-18T00:45:11.408Z,7.88
2023-04-18T00:46:13.120Z,8.82
2023-04-18T00:48:20.699Z,8.65
2023-04-18T00:49:24.011Z,7.35
2023-04-18T00:50:26.300Z,10.32
2023-04-18T00:51:28.320Z,6.47
2023-04-18T00:52:30.082Z,9.50
2023-04-18T00:53:31.920Z,9.20
2023-04-18T00:55:38.418Z,7.72
2023-04-18T00:56:42.940Z,7.85
2023-04-18T00:57:44.576Z,8.32
2023-04-18T00:58:46.391Z,6.72
2023-04-18T00:59:50.265Z,9.27
2023-04-18T01:00:54.683Z,7.75
2023-04-18T01:01:56.421Z,8.57
2023-04-18T01:03:00.931Z,11.07
2023-04-18T01:04:02.796Z,8.00
2023-04-18T01:05:04.797Z,8.52
2023-04-18T01:06:06.522Z,8.68
2023-04-18T01:08:11.098Z,6.60
2023-04-18T01:09:14.002Z,7.95
2023-04-18T01:10:15.981Z,8.38
2023-04-18T01:11:17.670Z,9.13
2023-04-18T01:12:26.417Z,8.88
2023-04-18T01:13:29.345Z,8.00
2023-04-18T01:14:31.039Z,8.23
2023-04-18T01:16:34.852Z,6.75
2023-04-18T01:17:36.529Z,7.32
2023-04-18T01:19:42.652Z,8.82
2023-04-18T01:21:53.441Z,7.57
2023-04-18T01:22:57.389Z,8.75
2023-04-18T01:24:08.284Z,8.93
2023-04-18T01:25:11.987Z,7.20
2023-04-18T01:26:13.796Z,7.80
2023-04-18T01:27:15.533Z,8.48
2023-04-18T01:28:19.863Z,9.88
2023-04-18T01:29:25.360Z,10.68
2023-04-18T01:30:27.018Z,7.57
2023-04-18T01:32:31.079Z,6.85
2023-04-18T01:34:34.342Z,8.65
2023-04-18T01:35:36.072Z,8.00
2023-04-18T01:37:39.589Z,9.38
2023-04-18T01:38:42.010Z,8.27
2023-04-18T01:39:47.589Z,9.18
2023-04-18T01:40:50.449Z,9.18
2023-04-18T01:41:52.113Z,10.48
2023-04-18T01:42:53.733Z,8.98
2023-04-18T01:44:59.454Z,8.50
2023-04-18T01:46:04.335Z,7.82
2023-04-18T01:47:05.944Z,7.53
2023-04-18T01:49:11.442Z,9.70
2023-04-18T01:50:13.368Z,9.45
2023-04-18T01:52:17.377Z,9.52
2023-04-18T01:53:19.265Z,10.43
2023-04-18T01:56:24.957Z,9.55
2023-04-18T01:57:28.639Z,9.95
2023-04-18T01:58:32.872Z,8.02
2023-04-18T01:59:34.580Z,8.35
2023-04-18T02:00:36.888Z,8.73
2023-04-18T02:01:40.564Z,7.38
2023-04-18T02:02:42.762Z,10.75
2023-04-18T02:03:44.820Z,8.43
2023-04-18T02:04:47.820Z,10.45
2023-04-18T02:06:50.957Z,12.32
2023-04-18T02:07:52.974Z,9.25
2023-04-18T02:08:54.591Z,7.47
2023-04-18T02:09:59.731Z,12.00
2023-04-18T02:12:03.539Z,10.20
2023-04-18T02:14:08.375Z,8.70
2023-04-18T02:16:13.272Z,7.35
2023-04-18T02:17:14.940Z,9.73
2023-04-18T02:19:19.117Z,8.68
2023-04-18T02:21:22.715Z,8.80
2023-04-18T02:22:24.346Z,9.43
2023-04-18T02:23:25.921Z,7.50
2023-04-18T02:24:30.391Z,7.68
2023-04-18T02:25:31.994Z,11.98
2023-04-18T02:26:35.806Z,8.57
2023-04-18T02:27:38.427Z,8.73
2023-04-18T02:28:40.067Z,8.13
2023-04-18T02:29:41.712Z,9.75
2023-04-18T02:30:43.509Z,9.38
2023-04-18T02:31:47.284Z,8.88
2023-04-18T02:32:53.962Z,7.47
2023-04-18T02:33:58.968Z,7.47
2023-04-18T02:35:02.852Z,7.53
2023-04-18T02:36:04.939Z,8.23
2023-04-18T02:37:06.578Z,8.60
2023-04-18T02:38:08.683Z,8.70
2023-04-18T02:39:10.425Z,7.78
2023-04-18T02:41:17.453Z,8.02
2023-04-18T02:42:19.156Z,8.35
2023-04-18T02:44:22.309Z,8.35
2023-04-18T02:45:23.948Z,10.07
2023-04-18T02:47:27.918Z,7.22
2023-04-18T02:49:32.249Z,8.07
2023-04-18T02:50:35.481Z,7.30
2023-04-18T02:51:37.205Z,8.50
2023-04-18T02:52:39.206Z,8.23
2023-04-18T02:53:41.439Z,8.10
2023-04-18T02:54:43.256Z,8.18
2023-04-18T02:55:52.355Z,7.57
2023-04-18T02:56:56.907Z,7.65
2023-04-18T02:58:13.832Z,8.43
2023-04-18T02:59:33.839Z,7.70
2023-04-18T03:00:47.009Z,9.13
2023-04-18T03:02:16.697Z,9.52
2023-04-18T03:03:25.105Z,7.05
2023-04-18T03:04:38.397Z,9.52
2023-04-18T03:05:42.804Z,7.22
2023-04-18T03:07:46.299Z,8.07
2023-04-18T03:09:49.821Z,10.13
2023-04-18T03:10:56.857Z,8.07
2023-04-18T03:12:02.080Z,6.72
2023-04-18T03:13:05.405Z,7.95
2023-04-18T03:14:08.067Z,7.32
2023-04-18T03:15:20.666Z,7.75
2023-04-18T03:16:22.795Z,7.43
2023-04-18T03:17:24.847Z,8.10
2023-04-18T03:18:29.695Z,7.32
2023-04-18T03:19:36.427Z,8.32
2023-04-18T03:20:42.747Z,7.95
2023-04-18T03:23:53.063Z,8.80
2023-04-18T03:24:56.039Z,8.20
2023-04-18T03:26:13.749Z,8.00
2023-04-18T03:27:19.738Z,8.95
2023-04-18T03:28:22.340Z,7.55
2023-04-18T03:29:24.647Z,8.57
2023-04-18T03:31:30.818Z,8.95
2023-04-18T03:32:34.020Z,7.68
2023-04-18T03:33:36.244Z,8.27
2023-04-18T03:34:45.641Z,8.00
2023-04-18T03:35:49.647Z,8.65
2023-04-18T03:36:56.481Z,8.45
2023-04-18T03:37:58.475Z,7.90
2023-04-18T03:39:05.161Z,8.88
2023-04-18T03:40:07.286Z,9.02
2023-04-18T03:41:08.988Z,8.77
2023-04-18T03:42:14.492Z,7.40
2023-04-18T03:43:19.205Z,7.70
2023-04-18T03:44:20.942Z,8.43
2023-04-18T03:46:25.304Z,7.05
2023-04-18T03:47:33.240Z,10.95
2023-04-18T03:48:37.317Z,10.02
2023-04-18T03:49:43.625Z,8.65
2023-04-18T03:50:45.382Z,10.75
2023-04-18T03:52:55.074Z,11.40
2023-04-18T03:53:56.666Z,9.05
2023-04-18T03:54:58.296Z,8.43
2023-04-18T03:56:05.660Z,9.15
2023-04-18T03:57:27.117Z,7.28
2023-04-18T03:58:28.875Z,9.20
2023-04-18T04:00:35.501Z,7.60
2023-04-18T04:01:42.584Z,8.43
2023-04-18T04:02:46.898Z,7.57
2023-04-18T04:03:54.573Z,8.75
2023-04-18T04:04:56.672Z,8.70
2023-04-18T04:05:58.909Z,8.48
2023-04-18T04:07:00.974Z,8.48
2023-04-18T04:08:09.832Z,8.38
2023-04-18T04:09:13.829Z,8.30
2023-04-18T04:10:15.613Z,9.80
2023-04-18T04:11:17.574Z,9.45
2023-04-18T04:12:19.301Z,11.68
2023-04-18T04:13:20.868Z,9.35
2023-04-18T04:14:24.654Z,8.82
2023-04-18T04:15:29.145Z,10.07
2023-04-18T04:16:37.201Z,9.85
2023-04-18T04:17:39.380Z,8.02
2023-04-18T04:19:42.618Z,11.15
2023-04-18T04:20:48.031Z,8.82
2023-04-18T04:22:02.476Z,8.10
2023-04-18T04:23:04.198Z,8.38
2023-04-18T04:24:07.544Z,10.48
2023-04-18T04:25:13.874Z,9.13
2023-04-18T04:26:23.346Z,8.82
2023-04-18T04:27:34.004Z,9.00
2023-04-18T04:28:36.126Z,8.93
2023-04-18T04:29:39.962Z,8.70
2023-04-18T04:31:28.219Z,9.32
2023-04-18T04:32:31.443Z,9.25
2023-04-18T04:33:35.683Z,11.95
2023-04-18T04:34:41.659Z,9.93
2023-04-18T04:35:49.839Z,7.90
2023-04-18T04:36:54.734Z,10.20
2023-04-18T04:37:58.880Z,9.55
2023-04-18T04:39:08.610Z,9.25
2023-04-18T04:40:25.003Z,8.18
2023-04-18T04:41:43.393Z,6.43
2023-04-18T04:42:47.215Z,7.75
2023-04-18T04:43:54.470Z,7.00
2023-04-18T04:45:01.669Z,9.05
2023-04-18T04:46:04.655Z,8.40
2023-04-18T04:47:06.403Z,9.90
2023-04-18T04:48:13.822Z,9.02
2023-04-18T04:49:16.480Z,8.32
2023-04-18T04:51:20.101Z,8.10
2023-04-18T04:53:25.647Z,10.77
2023-04-18T04:54:27.753Z,9.07
2023-04-18T04:55:29.769Z,8.35
2023-04-18T04:56:32.411Z,9.18
2023-04-18T04:57:59.857Z,9.85
2023-04-18T04:59:24.355Z,9.05
2023-04-18T05:01:27.680Z,8.65
2023-04-18T05:02:30.085Z,8.40
2023-04-18T05:03:32.022Z,9.20
2023-04-18T05:04:33.993Z,10.18
2023-04-18T05:05:35.897Z,8.95
2023-04-18T05:07:41.948Z,10.02
2023-04-18T05:09:45.268Z,9.02
2023-04-18T05:11:51.911Z,8.63
2023-04-18T05:12:56.392Z,8.93
2023-04-18T05:13:58.020Z,11.43
2023-04-18T05:16:01.420Z,8.88
2023-04-18T05:18:06.229Z,7.85
2023-04-18T05:19:07.836Z,8.88
2023-04-18T05:20:10.194Z,9.35
2023-04-18T05:21:11.822Z,9.65
2023-04-18T05:22:13.452Z,12.10
2023-04-18T05:24:19.016Z,9.15
2023-04-18T05:25:20.770Z,10.65
2023-04-18T05:27:26.651Z,8.90
2023-04-18T05:28:30.647Z,9.82
2023-04-18T05:29:34.732Z,9.05
2023-04-18T05:30:36.477Z,9.95
2023-04-18T05:32:39.614Z,10.93
2023-04-18T05:34:43.014Z,11.90
2023-04-18T05:36:47.799Z,10.70
2023-04-18T05:37:49.357Z,12.73
2023-04-18T05:38:51.679Z,12.43
2023-04-18T05:39:53.424Z,10.48
2023-04-18T05:41:58.347Z,11.23
2023-04-18T05:43:00.903Z,12.20
2023-04-18T05:44:05.861Z,12.48
2023-04-18T05:45:08.349Z,12.15
2023-04-18T05:46:10.213Z,10.23
2023-04-18T05:47:11.866Z,12.30
2023-04-18T05:48:14.446Z,10.85
2023-04-18T05:49:16.205Z,14.10
2023-04-18T05:51:19.426Z,14.10
2023-04-18T05:53:22.702Z,17.85
2023-04-18T05:54:27.565Z,18.50
2023-04-18T05:55:29.272Z,15.57
2023-04-18T05:56:31.043Z,14.20
2023-04-18T05:58:37.214Z,12.48
2023-04-18T05:59:38.860Z,13.05
2023-04-18T06:00:42.249Z,9.40
2023-04-18T06:01:44.292Z,10.27
2023-04-18T06:02:46.063Z,10.60
2023-04-18T06:03:48.117Z,10.15
2023-04-18T06:04:50.060Z,10.20
2023-04-18T06:05:54.668Z,10.77
2023-04-18T06:06:56.580Z,11.20
2023-04-18T06:07:58.413Z,10.95
2023-04-18T06:10:07.737Z,13.70
2023-04-18T06:11:09.520Z,13.15
2023-04-18T06:13:14.900Z,23.08
2023-04-18T06:15:24.888Z,22.23
2023-04-18T06:16:26.720Z,21.02
2023-04-18T06:17:31.009Z,19.48
2023-04-18T06:18:36.943Z,15.60
2023-04-18T06:19:39.549Z,14.63
2023-04-18T06:20:45.326Z,11.57
2023-04-18T06:21:50.706Z,14.13
2023-04-18T06:22:54.647Z,12.23
2023-04-18T06:24:01.585Z,11.70
2023-04-18T06:25:03.532Z,12.18
2023-04-18T06:26:09.199Z,11.05
2023-04-18T06:27:20.479Z,11.38
2023-04-18T06:28:32.315Z,14.18
2023-04-18T06:29:35.545Z,14.60
2023-04-18T06:30:37.761Z,13.02
2023-04-18T06:31:39.366Z,11.00
2023-04-18T06:32:41.304Z,11.07
2023-04-18T06:33:44.795Z,9.20
2023-04-18T06:34:46.390Z,9.65
2023-04-18T06:35:48.077Z,11.13
2023-04-18T06:36:50.416Z,9.40
2023-04-18T06:37:52.365Z,9.82
2023-04-18T06:38:54.482Z,8.07
2023-04-18T06:39:56.196Z,7.88
2023-04-18T06:40:57.780Z,7.40
2023-04-18T06:41:59.448Z,9.32
2023-04-18T06:43:03.325Z,9.25
2023-04-18T06:44:07.305Z,8.73
2023-04-18T06:45:11.919Z,10.05
2023-04-18T06:46:13.891Z,10.13
2023-04-18T06:47:16.173Z,8.27
2023-04-18T06:48:17.784Z,9.50
2023-04-18T06:50:26.259Z,9.80
2023-04-18T06:51:27.930Z,9.25
2023-04-18T06:53:31.138Z,10.73
2023-04-18T06:54:32.909Z,7.70
2023-04-18T06:55:34.579Z,7.55
2023-04-18T06:56:38.348Z,9.73
2023-04-18T06:57:41.338Z,8.50
2023-04-18T06:58:45.728Z,8.13
2023-04-18T06:59:47.401Z,8.88
2023-04-18T07:01:53.906Z,7.22
2023-04-18T07:03:57.223Z,9.63
2023-04-18T07:06:00.765Z,8.90
2023-04-18T07:07:03.769Z,7.93
2023-04-18T07:08:08.001Z,8.60
2023-04-18T07:09:09.626Z,8.50
2023-04-18T07:10:13.653Z,12.27
2023-04-18T07:11:18.623Z,9.55
2023-04-18T07:12:20.808Z,7.95
2023-04-18T07:13:22.428Z,8.15
2023-04-18T07:14:24.749Z,8.98
2023-04-18T07:15:26.444Z,8.30
2023-04-18T07:17:29.901Z,7.88
2023-04-18T07:18:37.859Z,9.45
2023-04-18T07:19:41.110Z,9.43
2023-04-18T07:20:42.799Z,9.43
2023-04-18T07:21:45.933Z,7.93
2023-04-18T07:22:48.164Z,9.32
2023-04-18T07:23:52.248Z,11.10
2023-04-18T07:24:56.138Z,11.40
2023-04-18T07:25:59.523Z,10.32
2023-04-18T07:27:02.593Z,8.05
2023-04-18T07:28:04.399Z,12.90
2023-04-18T07:30:08.186Z,10.10
2023-04-18T07:31:11.602Z,9.23
2023-04-18T07:32:13.461Z,9.07
2023-04-18T07:34:17.331Z,8.80
2023-04-18T07:35:18.965Z,8.32
2023-04-18T07:37:26.168Z,8.32
2023-04-18T07:38:30.348Z,9.98
2023-04-18T07:39:35.804Z,9.85
2023-04-18T07:40:37.630Z,10.52
2023-04-18T07:42:40.933Z,10.03
2023-04-18T07:43:44.727Z,8.80
2023-04-18T07:44:47.002Z,9.68
2023-04-18T07:45:52.229Z,10.93
2023-04-18T07:46:53.895Z,7.97
2023-04-18T07:47:55.637Z,9.38
2023-04-18T07:48:57.296Z,10.45
2023-04-18T07:49:58.931Z,10.68
2023-04-18T07:52:04.852Z,10.20
2023-04-18T07:53:08.206Z,9.23
2023-04-18T07:54:11.159Z,10.65
2023-04-18T07:55:13.043Z,8.85
2023-04-18T07:57:16.335Z,12.77
2023-04-18T07:58:18.082Z,10.10
2023-04-18T07:59:22.492Z,9.95
2023-04-18T08:00:24.604Z,8.23
2023-04-18T08:01:27.280Z,9.95
2023-04-18T08:02:29.289Z,11.55
2023-04-18T08:03:31.145Z,11.75
2023-04-18T08:04:33.167Z,9.82
2023-04-18T08:05:34.968Z,10.48
2023-04-18T08:07:38.687Z,8.00
2023-04-18T08:09:42.024Z,12.77
2023-04-18T08:11:45.270Z,9.52
2023-04-18T08:12:46.881Z,8.48
2023-04-18T08:14:54.740Z,6.80
2023-04-18T08:15:56.396Z,7.32
2023-04-18T08:18:00.374Z,8.23
2023-04-18T08:19:02.019Z,9.38
2023-04-18T08:20:07.223Z,8.90
2023-04-18T08:21:09.011Z,7.65
2023-04-18T08:23:13.388Z,8.63
2023-04-18T08:24:15.185Z,6.97
2023-04-18T08:26:19.664Z,7.63
2023-04-18T08:27:23.630Z,7.97
2023-04-18T08:28:25.719Z,7.47
2023-04-18T08:29:27.397Z,7.88
2023-04-18T08:30:31.697Z,7.00
2023-04-18T08:31:35.633Z,7.35
2023-04-18T08:32:37.424Z,7.95
2023-04-18T08:33:41.775Z,10.95
2023-04-18T08:34:46.890Z,7.22
2023-04-18T08:35:51.020Z,6.90
2023-04-18T08:36:52.594Z,6.50
2023-04-18T08:37:54.274Z,6.88
2023-04-18T08:38:59.252Z,9.18
2023-04-18T08:40:05.345Z,9.25
2023-04-18T08:41:08.516Z,6.80
2023-04-18T08:42:10.833Z,7.82
2023-04-18T08:43:16.638Z,6.30
2023-04-18T08:44:19.149Z,10.18
2023-04-18T08:45:20.983Z,8.30
2023-04-18T08:47:28.397Z,5.95
2023-04-18T08:48:32.528Z,8.93
2023-04-18T08:49:34.122Z,9.40
2023-04-18T08:50:36.194Z,11.45
2023-04-18T08:51:39.950Z,7.05
2023-04-18T08:52:45.631Z,7.78
2023-04-18T08:53:50.630Z,5.40
2023-04-18T08:54:52.690Z,6.82
2023-04-18T08:55:57.932Z,6.25
2023-04-18T08:57:07.720Z,8.40
2023-04-18T08:58:12.442Z,5.65
2023-04-18T08:59:14.799Z,5.22
2023-04-18T09:00:18.055Z,6.75
2023-04-18T09:01:19.759Z,6.65
2023-04-18T09:02:23.321Z,6.65
2023-04-18T09:03:42.107Z,5.68
2023-04-18T09:04:45.898Z,6.32
2023-04-18T09:06:12.518Z,5.60
2023-04-18T09:07:20.503Z,5.75
2023-04-18T09:08:24.313Z,6.88
2023-04-18T09:09:27.537Z,5.68
2023-04-18T09:10:34.075Z,6.72
2023-04-18T09:11:35.725Z,5.68
2023-04-18T09:12:50.555Z,4.63
2023-04-18T09:13:53.370Z,5.45
2023-04-18T09:15:12.341Z,4.28
2023-04-18T09:16:16.903Z,6.43
2023-04-18T09:17:37.740Z,6.80
2023-04-18T09:18:42.412Z,4.38
2023-04-18T09:19:50.078Z,7.55
2023-04-18T09:20:51.840Z,6.00
2023-04-18T09:22:02.056Z,4.63
2023-04-18T09:23:11.678Z,6.38
2023-04-18T09:24:23.804Z,6.35
2023-04-18T09:25:40.746Z,5.40
2023-04-18T09:26:47.132Z,5.72
2023-04-18T09:27:48.718Z,4.80
2023-04-18T09:28:53.845Z,5.80
2023-04-18T09:29:57.821Z,5.75
2023-04-18T09:31:11.971Z,5.68
2023-04-18T09:32:39.949Z,6.43
2023-04-18T09:33:54.201Z,5.40
2023-04-18T09:35:04.946Z,6.95
2023-04-18T09:36:21.528Z,6.18
2023-04-18T09:37:26.461Z,5.32
2023-04-18T09:38:42.582Z,7.25
2023-04-18T09:39:45.840Z,6.53
2023-04-18T09:40:47.525Z,6.43
2023-04-18T09:43:00.502Z,5.85
2023-04-18T09:44:14.338Z,5.32
2023-04-18T09:45:20.094Z,6.13
2023-04-18T09:46:22.642Z,5.15
2023-04-18T09:47:24.417Z,5.43
2023-04-18T09:49:30.260Z,6.75
2023-04-18T09:50:33.016Z,5.15
2023-04-18T09:51:35.141Z,5.93
2023-04-18T09:52:41.415Z,6.35
2023-04-18T09:53:47.479Z,5.05
2023-04-18T09:54:55.735Z,5.18
2023-04-18T09:55:57.982Z,4.85
2023-04-18T09:57:02.777Z,5.38
2023-04-18T09:58:05.188Z,5.38
2023-04-18T09:59:09.034Z,5.97
2023-04-18T10:00:20.262Z,6.32
2023-04-18T10:01:23.204Z,5.50
2023-04-18T10:02:28.901Z,4.90
2023-04-18T10:03:38.030Z,5.28
2023-04-18T10:04:40.644Z,4.47
2023-04-18T10:05:42.939Z,4.40
2023-04-18T10:06:48.068Z,4.40
2023-04-18T10:07:50.872Z,4.70
2023-04-18T10:08:53.709Z,6.25
2023-04-18T10:09:57.814Z,5.65
2023-04-18T10:11:02.441Z,4.20
2023-04-18T10:12:06.488Z,5.30
2023-04-18T10:13:11.636Z,5.85
2023-04-18T10:14:18.787Z,6.38
2023-04-18T10:15:22.325Z,6.00
2023-04-18T10:16:24.279Z,6.90
2023-04-18T10:17:29.274Z,4.65
2023-04-18T10:18:31.329Z,5.40
2023-04-18T10:20:35.501Z,4.57
2023-04-18T10:21:37.274Z,5.10
2023-04-18T10:22:38.914Z,4.55
2023-04-18T10:24:45.590Z,4.43
2023-04-18T10:25:48.341Z,5.70
2023-04-18T10:26:52.121Z,4.28
2023-04-18T10:27:58.917Z,4.22
2023-04-18T10:29:03.951Z,3.60
2023-04-18T10:30:09.185Z,4.00
2023-04-18T10:31:11.773Z,4.18
2023-04-18T10:32:13.514Z,4.38
2023-04-18T10:34:37.549Z,4.13
2023-04-18T10:36:11.553Z,4.38
2023-04-18T10:37:13.299Z,4.38
2023-04-18T10:38:17.986Z,4.05
2023-04-18T10:39:21.965Z,3.65
2023-04-18T10:40:34.332Z,3.70
2023-04-18T10:41:49.459Z,3.97
2023-04-18T10:42:52.106Z,3.60
2023-04-18T10:44:15.733Z,3.67
2023-04-18T10:45:22.612Z,4.25
2023-04-18T10:46:31.831Z,3.95
2023-04-18T10:47:34.675Z,5.20
2023-04-18T10:48:39.181Z,4.22
2023-04-18T10:49:55.900Z,4.40
2023-04-18T10:51:14.127Z,4.20
2023-04-18T10:52:15.985Z,4.30
2023-04-18T10:53:17.622Z,5.43
2023-04-18T10:54:43.564Z,4.03
2023-04-18T10:55:54.538Z,4.50
2023-04-18T10:56:58.815Z,4.55
2023-04-18T10:58:00.842Z,3.85
2023-04-18T10:59:03.669Z,5.63
2023-04-18T11:00:11.063Z,4.20
2023-04-18T11:01:22.308Z,5.22
2023-04-18T11:02:32.489Z,4.00
2023-04-18T11:03:34.837Z,7.38
2023-04-18T11:04:37.512Z,6.05
2023-04-18T11:05:39.353Z,4.82
2023-04-18T11:06:54.942Z,4.43
2023-04-18T11:07:56.752Z,4.03
2023-04-18T11:10:26.408Z,3.60
2023-04-18T11:11:28.211Z,4.30
2023-04-18T11:12:35.528Z,4.40
2023-04-18T11:13:52.898Z,4.38
2023-04-18T11:14:54.612Z,4.18
2023-04-18T11:16:57.841Z,4.20
2023-04-18T11:18:05.226Z,6.07
2023-04-18T11:19:21.115Z,4.22
2023-04-18T11:20:23.111Z,4.38
2023-04-18T11:21:30.425Z,5.20
2023-04-18T11:22:48.814Z,4.82
2023-04-18T11:23:50.557Z,4.18
2023-04-18T11:25:56.394Z,4.90
2023-04-18T11:26:58.349Z,4.82
2023-04-18T11:28:03.519Z,5.65
2023-04-18T11:29:06.461Z,5.03
2023-04-18T11:30:08.813Z,4.15
2023-04-18T11:31:16.219Z,5.65
2023-04-18T11:32:17.849Z,4.53
2023-04-18T11:33:19.545Z,5.03
2023-04-18T11:35:25.301Z,3.90
2023-04-18T11:37:31.006Z,4.10
2023-04-18T11:38:33.376Z,3.63
2023-04-18T11:39:40.802Z,3.80
2023-04-18T11:40:49.142Z,4.35
2023-04-18T11:41:53.082Z,4.07
2023-04-18T11:42:55.373Z,4.72
2023-04-18T11:43:56.946Z,4.03
2023-04-18T11:44:58.587Z,4.65
2023-04-18T11:47:09.265Z,7.97
2023-04-18T11:48:11.374Z,4.97
2023-04-18T11:49:26.021Z,4.10
2023-04-18T11:50:27.841Z,5.18
2023-04-18T11:51:39.017Z,4.80
2023-04-18T11:52:42.443Z,4.45
2023-04-18T11:53:47.226Z,4.00
2023-04-18T11:54:48.787Z,5.07
2023-04-18T11:55:55.730Z,5.18
2023-04-18T11:56:57.788Z,5.70
2023-04-18T11:58:02.352Z,4.82
2023-04-18T11:59:10.164Z,4.20
2023-04-18T12:00:12.704Z,4.95
2023-04-18T12:01:19.281Z,8.77
2023-04-18T12:02:22.788Z,4.57
2023-04-18T12:03:29.143Z,4.38
2023-04-18T12:04:49.347Z,8.27
2023-04-18T12:07:02.566Z,5.25
2023-04-18T12:08:27.264Z,5.60
2023-04-18T12:09:29.051Z,7.80
2023-04-18T12:11:32.324Z,7.15
2023-04-18T12:12:34.175Z,5.18
2023-04-18T12:13:35.931Z,6.28
2023-04-18T12:15:44.653Z,9.60
2023-04-18T12:16:46.431Z,4.95
2023-04-18T12:19:02.306Z,5.45
2023-04-18T12:20:05.751Z,6.45
2023-04-18T12:21:07.552Z,5.78
2023-04-18T12:22:11.459Z,5.68
2023-04-18T12:23:32.313Z,5.55
2023-04-18T12:24:34.614Z,6.40
2023-04-18T12:25:36.441Z,4.80
2023-04-18T12:26:45.588Z,5.80
2023-04-18T12:27:51.991Z,5.35
2023-04-18T12:28:58.321Z,4.70
2023-04-18T12:30:02.203Z,6.15
2023-04-18T12:31:07.379Z,5.00
2023-04-18T12:32:09.252Z,4.97
2023-04-18T12:33:11.288Z,5.60
2023-04-18T12:34:13.746Z,7.90
2023-04-18T12:35:16.588Z,6.90
2023-04-18T12:36:18.196Z,5.57
2023-04-18T12:37:25.516Z,5.75
2023-04-18T12:38:27.576Z,5.38
2023-04-18T12:39:29.186Z,4.90
2023-04-18T12:40:30.866Z,8.65
2023-04-18T12:41:32.501Z,5.65
2023-04-18T12:42:34.162Z,4.57
2023-04-18T12:44:37.362Z,5.22
2023-04-18T12:46:40.632Z,4.85
2023-04-18T12:47:44.651Z,5.18
2023-04-18T12:48:46.504Z,6.38
2023-04-18T12:49:50.453Z,4.88
2023-04-18T12:50:53.907Z,7.15
2023-04-18T12:51:57.886Z,6.43
2023-04-18T12:53:01.033Z,6.10
2023-04-18T12:54:02.713Z,6.65
2023-04-18T12:55:05.869Z,5.93
2023-04-18T12:56:07.885Z,6.05
2023-04-18T12:57:09.662Z,7.03
2023-04-18T12:59:13.161Z,6.40
2023-04-18T13:00:15.181Z,7.82
2023-04-18T13:02:24.058Z,4.88
2023-04-18T13:03:26.435Z,5.95
2023-04-18T13:04:28.245Z,5.47
2023-04-18T13:05:32.885Z,6.05
2023-04-18T13:06:37.420Z,7.65
2023-04-18T13:07:43.018Z,4.82
2023-04-18T13:08:45.188Z,6.10
2023-04-18T13:09:46.857Z,5.57
2023-04-18T13:10:48.527Z,7.85
2023-04-18T13:12:52.549Z,5.60
2023-04-18T13:13:55.130Z,6.10
2023-04-18T13:14:57.570Z,4.90
2023-04-18T13:15:59.330Z,5.57
2023-04-18T13:18:05.190Z,6.72
2023-04-18T13:19:06.888Z,8.93
2023-04-18T13:20:12.344Z,6.90
2023-04-18T13:21:13.984Z,6.53
2023-04-18T13:23:19.589Z,6.27
2023-04-18T13:24:21.444Z,6.40
2023-04-18T13:25:23.263Z,6.25
2023-04-18T13:27:34.203Z,8.52
2023-04-18T13:28:35.879Z,6.03
2023-04-18T13:29:42.696Z,5.15
2023-04-18T13:30:44.299Z,4.85
2023-04-18T13:31:45.963Z,4.72
2023-04-18T13:33:49.330Z,4.63
2023-04-18T13:35:52.821Z,4.30
2023-04-18T13:37:56.637Z,4.75
2023-04-18T13:40:05.553Z,5.70
2023-04-18T13:41:12.731Z,4.82
2023-04-18T13:42:18.544Z,5.07
2023-04-18T13:43:20.202Z,4.80
2023-04-18T13:45:26.765Z,5.05
2023-04-18T13:46:28.471Z,6.85
2023-04-18T13:47:32.559Z,5.18
2023-04-18T13:49:36.459Z,5.50
2023-04-18T13:50:45.398Z,4.80
2023-04-18T13:51:50.508Z,4.97
2023-04-18T13:52:54.536Z,4.30
2023-04-18T13:54:02.536Z,7.32
2023-04-18T13:55:04.415Z,5.10
2023-04-18T13:56:06.728Z,8.45
2023-04-18T13:57:14.723Z,5.95
2023-04-18T13:58:16.703Z,6.63
2023-04-18T13:59:18.420Z,7.93
2023-04-18T14:01:22.299Z,5.15
2023-04-18T14:02:24.087Z,5.88
2023-04-18T14:03:26.416Z,5.03
2023-04-18T14:04:28.542Z,4.55
2023-04-18T14:05:34.063Z,5.72
2023-04-18T14:06:38.257Z,4.88
2023-04-18T14:07:39.861Z,4.57
2023-04-18T14:08:41.528Z,5.50
2023-04-18T14:09:43.308Z,4.38
2023-04-18T14:11:46.560Z,4.07
2023-04-18T14:12:51.085Z,6.72
2023-04-18T14:13:55.256Z,4.28
2023-04-18T14:14:56.949Z,4.10
2023-04-18T14:17:01.379Z,3.70
2023-04-18T14:18:03.003Z,7.72
2023-04-18T14:19:05.002Z,4.50
2023-04-18T14:20:07.589Z,4.15
2023-04-18T14:21:09.272Z,6.50
2023-04-18T14:23:12.653Z,6.63
2023-04-18T14:25:17.085Z,4.97
2023-04-18T14:26:21.818Z,4.43
2023-04-18T14:27:26.154Z,3.83
2023-04-18T14:28:27.930Z,3.88
2023-04-18T14:29:31.905Z,4.80
2023-04-18T14:30:35.859Z,3.47
2023-04-18T14:31:37.582Z,6.57
2023-04-18T14:32:39.372Z,5.97
2023-04-18T14:34:42.817Z,5.35
2023-04-18T14:35:44.455Z,6.25
2023-04-18T14:37:47.578Z,4.25
2023-04-18T14:38:50.088Z,4.65
2023-04-18T14:39:51.842Z,4.72
2023-04-18T14:40:54.503Z,4.80
2023-04-18T14:41:56.157Z,5.13
2023-04-18T14:43:00.322Z,5.00
2023-04-18T14:44:04.323Z,4.72
2023-04-18T14:45:08.278Z,4.78
2023-04-18T14:46:13.841Z,5.00
2023-04-18T14:47:15.869Z,4.55
2023-04-18T14:48:17.548Z,5.88
2023-04-18T14:49:21.416Z,8.35
2023-04-18T14:51:24.748Z,6.18
2023-04-18T14:52:26.308Z,5.63
2023-04-18T14:53:28.160Z,4.97
2023-04-18T14:54:31.030Z,5.75
2023-04-18T14:55:34.496Z,3.80
2023-04-18T14:56:36.434Z,5.07
2023-04-18T14:57:40.353Z,6.28
2023-04-18T14:58:44.055Z,6.22
2023-04-18T15:00:49.624Z,4.40
2023-04-18T15:01:52.010Z,7.20
2023-04-18T15:02:56.517Z,4.47
2023-04-18T15:03:59.403Z,4.18
2023-04-18T15:05:01.292Z,7.20
2023-04-18T15:06:05.862Z,4.38
2023-04-18T15:07:07.621Z,5.03
2023-04-18T15:09:15.304Z,4.53
2023-04-18T15:10:17.187Z,5.95
2023-04-18T15:11:20.934Z,5.38
2023-04-18T15:12:26.000Z,4.78
2023-04-18T15:13:27.799Z,5.97
2023-04-18T15:14:31.146Z,5.57
2023-04-18T15:15:35.576Z,4.93
2023-04-18T15:16:39.752Z,5.45
2023-04-18T15:17:41.605Z,4.40
2023-04-18T15:18:43.819Z,3.97
2023-04-18T15:19:48.404Z,5.70
2023-04-18T15:20:53.706Z,5.97
2023-04-18T15:21:55.381Z,5.55
2023-04-18T15:22:59.282Z,6.93
2023-04-18T15:25:12.433Z,7.07
2023-04-18T15:26:14.072Z,7.38
2023-04-18T15:28:23.064Z,6.78
2023-04-18T15:29:24.762Z,5.63
2023-04-18T15:31:28.243Z,5.47
2023-04-18T15:32:29.969Z,6.63
2023-04-18T15:34:33.251Z,5.87
2023-04-18T15:35:37.055Z,5.18
2023-04-18T15:37:40.360Z,5.40
2023-04-18T15:38:44.165Z,6.97
2023-04-18T15:39:45.925Z,6.07
2023-04-18T15:40:47.665Z,5.07
2023-04-18T15:42:54.502Z,5.43
2023-04-18T15:43:56.260Z,5.13
2023-04-18T15:46:02.013Z,4.97
2023-04-18T15:48:05.567Z,7.88
2023-04-18T15:49:07.216Z,5.38
2023-04-18T15:50:12.219Z,5.13
2023-04-18T15:51:13.947Z,5.55
2023-04-18T15:53:19.099Z,6.88
2023-04-18T15:54:20.810Z,7.10
2023-04-18T15:56:26.891Z,7.53
2023-04-18T15:57:29.754Z,5.97
2023-04-18T15:58:31.620Z,4.72
2023-04-18T15:59:35.096Z,6.00
2023-04-18T16:00:36.762Z,6.63
2023-04-18T16:02:44.843Z,9.63
2023-04-18T16:03:49.071Z,8.80
2023-04-18T16:04:50.969Z,5.85
2023-04-18T16:05:52.874Z,4.50
2023-04-18T16:06:56.713Z,6.43
2023-04-18T16:08:02.212Z,6.75
2023-04-18T16:09:06.899Z,9.40
2023-04-18T16:10:10.570Z,7.82
2023-04-18T16:11:12.687Z,5.10
2023-04-18T16:13:16.133Z,5.63
2023-04-18T16:14:17.694Z,5.07
2023-04-18T16:15:19.878Z,5.25
2023-04-18T16:16:23.807Z,6.80
2023-04-18T16:17:25.627Z,5.07
2023-04-18T16:18:27.368Z,7.35
2023-04-18T16:19:29.470Z,6.00
2023-04-18T16:20:33.774Z,5.32
2023-04-18T16:21:35.474Z,7.97
2023-04-18T16:22:37.522Z,7.88
2023-04-18T16:23:41.541Z,6.38
2023-04-18T16:24:43.242Z,6.55
2023-04-18T16:25:44.986Z,6.93
2023-04-18T16:26:46.786Z,5.63
2023-04-18T16:27:48.507Z,5.25